Time;durP1;ratioP1;P1;durP2;ratioP2;P2;SDS_P1;SDS_P2;PMS_P1;PMS_P2;Temp;Humidity;BMP_temperature;BMP_pressure;BME280_temperature;BME280_humidity;BME280_pressure;Samples;Min_cycle;Max_cycle;Signal;HPM_P1;HPM_P2
2023/06/17 00:01:46;;;;;;;7.15;5.15;;;;;;;-143.48;59.50;118439.88;5094239;28;20113;-34
2023/06/17 00:04:11;;;;;;;7.30;4.90;;;;;;;-143.48;59.57;118439.88;5075791;28;20024;-34
2023/06/17 00:06:37;;;;;;;7.20;4.80;;;;;;;-143.48;59.34;118439.88;5094346;28;20032;-33
2023/06/17 00:09:03;;;;;;;10.95;4.90;;;;;;;-143.48;59.27;118439.88;5076001;28;20020;-34
2023/06/17 00:11:29;;;;;;;10.50;5.20;;;;;;;-143.48;59.92;118439.88;5093808;28;20028;-33
2023/06/17 00:13:54;;;;;;;8.80;4.78;;;;;;;-143.48;60.22;118439.88;5093611;28;20028;-40
2023/06/17 00:16:20;;;;;;;8.57;5.00;;;;;;;-143.48;60.64;118439.88;5094273;28;20047;-34
2023/06/17 00:18:47;;;;;;;10.38;4.95;;;;;;;-143.48;60.68;118439.88;5093778;28;20020;-34
2023/06/17 00:21:13;;;;;;;8.48;5.30;;;;;;;-143.48;60.78;118439.88;5094035;28;20387;-33
2023/06/17 00:23:39;;;;;;;9.75;5.40;;;;;;;-143.48;60.81;118439.88;5093938;28;20024;-33
2023/06/17 00:26:04;;;;;;;11.57;5.57;;;;;;;-143.48;61.02;118439.88;5093979;28;20458;-33
2023/06/17 00:28:31;;;;;;;8.52;5.40;;;;;;;-143.48;61.26;118439.88;5093818;28;20450;-33
2023/06/17 00:30:56;;;;;;;8.75;5.20;;;;;;;-143.48;61.76;118439.88;5093542;28;20385;-33
2023/06/17 00:33:21;;;;;;;7.35;5.15;;;;;;;-143.48;61.48;118439.88;5076231;28;20107;-33
2023/06/17 00:35:47;;;;;;;9.18;5.50;;;;;;;-143.48;61.91;118439.88;5093717;28;20031;-33
2023/06/17 00:38:12;;;;;;;8.93;5.43;;;;;;;-143.48;62.27;118439.88;5093670;28;20024;-33
2023/06/17 00:40:37;;;;;;;7.45;4.97;;;;;;;-143.48;62.40;118439.88;5093990;28;20480;-33
2023/06/17 00:43:03;;;;;;;8.25;5.25;;;;;;;-143.48;62.33;118439.88;5093690;28;20031;-33
2023/06/17 00:45:28;;;;;;;11.55;6.00;;;;;;;-143.48;62.48;118439.88;5093449;28;20077;-33
2023/06/17 00:47:54;;;;;;;9.52;5.45;;;;;;;-143.48;62.44;118439.88;5097671;28;20445;-33
2023/06/17 00:50:20;;;;;;;9.43;6.13;;;;;;;-143.48;63.22;118439.88;5097782;28;20087;-34
2023/06/17 00:52:50;;;;;;;7.75;5.03;;;;;;;-143.48;63.24;118439.88;5097869;28;20024;-33
2023/06/17 00:55:15;;;;;;;9.52;5.50;;;;;;;-143.48;63.77;118439.88;5097773;28;20024;-34
2023/06/17 00:57:41;;;;;;;6.53;5.20;;;;;;;-143.48;63.49;118439.88;5097759;28;20092;-33
2023/06/17 01:00:10;;;;;;;8.27;5.20;;;;;;;-143.48;63.93;118439.88;5097699;28;20388;-33
2023/06/17 01:02:40;;;;;;;8.50;5.50;;;;;;;-143.48;64.19;118439.88;5097638;28;20428;-33
2023/06/17 01:05:12;;;;;;;9.00;5.65;;;;;;;-143.48;64.26;118439.88;5097352;28;20024;-34
2023/06/17 01:07:57;;;;;;;9.23;5.68;;;;;;;-143.48;64.02;118439.88;5097608;28;20373;-33
2023/06/17 01:10:42;;;;;;;9.65;5.53;;;;;;;-143.48;64.69;118439.88;5097222;28;20064;-33
2023/06/17 01:13:09;;;;;;;8.02;5.40;;;;;;;-143.48;64.36;118439.88;5097178;28;20027;-33
2023/06/17 01:15:35;;;;;;;8.65;5.68;;;;;;;-143.48;65.08;118439.88;5096988;28;20146;-33
2023/06/17 01:18:04;;;;;;;11.35;5.70;;;;;;;-143.48;65.03;118439.88;5097408;28;20378;-33
2023/06/17 01:20:30;;;;;;;9.13;5.80;;;;;;;-143.48;65.24;118439.88;5097313;28;20423;-34
2023/06/17 01:22:57;;;;;;;9.45;6.00;;;;;;;-143.48;64.88;118439.88;5097332;28;20573;-33
2023/06/17 01:25:29;;;;;;;11.25;6.00;;;;;;;-143.48;65.15;118439.88;5096918;28;20098;-33
2023/06/17 01:27:59;;;;;;;9.90;5.57;;;;;;;-143.48;65.82;118439.88;5078734;28;20031;-33
2023/06/17 01:30:28;;;;;;;10.65;5.60;;;;;;;-143.48;65.98;118439.88;5097148;28;20031;-34
2023/06/17 01:32:54;;;;;;;10.70;5.65;;;;;;;-143.48;65.34;118439.88;5096780;28;20021;-34
2023/06/17 01:35:20;;;;;;;8.95;6.22;;;;;;;-143.48;66.06;118439.88;5078515;28;20055;-34
2023/06/17 01:37:48;;;;;;;8.27;5.88;;;;;;;-143.48;66.91;118439.88;5097090;28;20059;-34
2023/06/17 01:40:18;;;;;;;11.00;6.05;;;;;;;-143.48;66.83;118439.88;5096691;28;20035;-34
2023/06/17 01:42:45;;;;;;;9.02;5.93;;;;;;;-143.48;67.07;118439.88;5096932;28;20035;-34
2023/06/17 01:45:13;;;;;;;9.65;5.97;;;;;;;-143.48;66.68;118439.88;5096556;28;20012;-34
2023/06/17 01:47:38;;;;;;;12.77;6.80;;;;;;;-143.48;66.57;118439.88;5096497;28;20024;-34
2023/06/17 01:50:05;;;;;;;9.25;6.40;;;;;;;-143.48;66.23;118439.88;5096592;28;20141;-33
2023/06/17 01:52:31;;;;;;;9.65;5.90;;;;;;;-143.48;66.33;118439.88;5096739;28;20024;-34
2023/06/17 01:54:57;;;;;;;9.07;6.07;;;;;;;-143.48;66.34;118439.88;5096345;28;20530;-34
2023/06/17 01:57:23;;;;;;;8.57;6.28;;;;;;;-143.48;65.56;118439.88;5095954;28;20524;-33
2023/06/17 01:59:48;;;;;;;13.68;6.25;;;;;;;-143.48;65.77;118439.88;5096298;28;20028;-34
2023/06/17 02:02:14;;;;;;;11.43;6.80;;;;;;;-143.48;65.66;118439.88;5078813;28;20473;-33
2023/06/17 02:04:39;;;;;;;8.25;6.22;;;;;;;-143.48;65.84;118439.88;5096488;28;20024;-33
2023/06/17 02:07:05;;;;;;;13.38;6.90;;;;;;;-143.48;66.26;118439.88;5096741;28;20024;-33
2023/06/17 02:09:30;;;;;;;10.98;6.97;;;;;;;-143.48;67.26;118439.88;5095953;28;20070;-34
2023/06/17 02:11:55;;;;;;;10.68;6.68;;;;;;;-143.48;67.37;118439.88;5096105;28;20023;-33
2023/06/17 02:14:21;;;;;;;19.15;7.50;;;;;;;-143.48;67.58;118439.88;5096006;28;20538;-33
2023/06/17 02:16:47;;;;;;;12.07;7.43;;;;;;;-143.48;67.52;118439.88;5096283;28;20351;-34
2023/06/17 02:19:12;;;;;;;12.35;7.60;;;;;;;-143.48;67.97;118439.88;5096028;28;20063;-33
2023/06/17 02:21:38;;;;;;;9.63;7.38;;;;;;;-143.48;68.63;118439.88;5095813;28;20016;-33
2023/06/17 02:24:04;;;;;;;12.02;7.60;;;;;;;-143.48;69.13;118439.88;5096473;28;20084;-34
2023/06/17 02:26:31;;;;;;;10.07;7.43;;;;;;;-143.48;69.51;118439.88;5096071;28;20011;-34
2023/06/17 02:28:56;;;;;;;13.40;7.78;;;;;;;-143.48;70.39;118439.88;5096058;28;20058;-34
2023/06/17 02:31:22;;;;;;;10.98;7.82;;;;;;;-143.48;70.31;118439.88;5095644;28;20420;-33
2023/06/17 02:33:47;;;;;;;10.80;7.50;;;;;;;-143.48;69.73;118439.88;5095942;28;20079;-33
2023/06/17 02:36:14;;;;;;;12.25;7.78;;;;;;;-143.48;69.74;118439.88;5095633;28;20024;-33
2023/06/17 02:38:40;;;;;;;14.25;8.15;;;;;;;-143.48;70.36;118439.88;5095797;28;20051;-33
2023/06/17 02:41:05;;;;;;;14.90;7.97;;;;;;;-143.48;71.21;118439.88;5095816;28;20459;-34
2023/06/17 02:43:31;;;;;;;10.32;8.00;;;;;;;-143.48;71.51;118439.88;5095520;28;20382;-33
2023/06/17 02:45:57;;;;;;;15.98;8.20;;;;;;;-143.48;70.52;118439.88;5095746;28;20146;-33
2023/06/17 02:48:22;;;;;;;9.60;7.68;;;;;;;-143.48;71.11;118439.88;5095739;28;20051;-34
2023/06/17 02:50:48;;;;;;;13.98;9.02;;;;;;;-143.48;71.71;118439.88;5095190;28;20494;-35
2023/06/17 02:53:15;;;;;;;12.50;8.57;;;;;;;-143.48;71.47;118439.88;5077102;28;20024;-34
2023/06/17 02:55:45;;;;;;;11.27;8.55;;;;;;;-143.48;72.25;118439.88;5095452;28;20054;-34
2023/06/17 02:58:14;;;;;;;11.63;8.43;;;;;;;-143.48;73.58;118439.88;5095985;28;20409;-34
2023/06/17 03:00:40;;;;;;;13.63;8.18;;;;;;;-143.48;73.54;118439.88;5095428;28;20383;-34
2023/06/17 03:03:06;;;;;;;13.63;8.43;;;;;;;-143.48;73.25;118439.88;5095050;28;20024;-34
2023/06/17 03:05:32;;;;;;;15.98;8.02;;;;;;;-143.48;73.61;118439.88;5094968;28;20016;-34
2023/06/17 03:07:57;;;;;;;10.05;8.30;;;;;;;-143.48;73.62;118439.88;5095338;28;20030;-34
2023/06/17 03:10:22;;;;;;;11.90;7.82;;;;;;;-143.48;73.77;118439.88;5076238;28;20378;-34
2023/06/17 03:12:48;;;;;;;13.38;8.10;;;;;;;-143.48;72.90;118439.88;5094883;28;20039;-34
2023/06/17 03:15:13;;;;;;;11.10;8.23;;;;;;;-143.48;73.51;118439.88;5094770;28;20028;-34
2023/06/17 03:17:39;;;;;;;11.45;7.82;;;;;;;-143.48;73.90;118439.88;5094818;28;20030;-34
2023/06/17 03:20:08;;;;;;;15.38;8.48;;;;;;;-143.48;74.65;118439.88;5094960;28;20115;-33
2023/06/17 03:22:34;;;;;;;11.65;8.02;;;;;;;-143.48;74.10;118439.88;5094735;28;20058;-34
2023/06/17 03:24:59;;;;;;;12.13;8.23;;;;;;;-143.48;74.14;118439.88;5094918;28;20020;-34
2023/06/17 03:27:24;;;;;;;12.60;8.40;;;;;;;-143.48;75.15;118439.88;5076575;28;20031;-34
2023/06/17 03:29:50;;;;;;;12.80;7.68;;;;;;;-143.48;74.59;118439.88;5094784;28;20099;-34
2023/06/17 03:32:15;;;;;;;10.90;7.90;;;;;;;-143.48;74.09;118439.88;5094828;28;20028;-33
2023/06/17 03:34:40;;;;;;;11.73;7.43;;;;;;;-143.48;74.06;118439.88;5094623;28;20413;-34
2023/06/17 03:37:06;;;;;;;11.57;7.32;;;;;;;-143.48;73.96;118439.88;5094412;28;20024;-34
2023/06/17 03:39:31;;;;;;;13.32;7.72;;;;;;;-143.48;72.90;118439.88;5094348;28;20428;-34
2023/06/17 03:41:56;;;;;;;14.02;8.35;;;;;;;-143.48;73.15;118439.88;5094386;28;20024;-34
2023/06/17 03:44:22;;;;;;;12.50;7.65;;;;;;;-143.48;73.76;118439.88;5094361;28;20455;-34
2023/06/17 03:46:47;;;;;;;11.05;7.70;;;;;;;-143.48;74.30;118439.88;5094543;28;20110;-34
2023/06/17 03:49:12;;;;;;;15.07;7.53;;;;;;;-143.48;73.68;118439.88;5094525;28;20020;-34
2023/06/17 03:51:38;;;;;;;12.05;7.68;;;;;;;-143.48;74.00;118439.88;5094163;28;20046;-34
2023/06/17 03:54:03;;;;;;;11.18;7.68;;;;;;;-143.48;73.55;118439.88;5094476;28;20027;-34
2023/06/17 03:56:29;;;;;;;13.57;8.20;;;;;;;-143.48;74.14;118439.88;5094429;28;20600;-34
2023/06/17 03:58:55;;;;;;;12.88;8.05;;;;;;;-143.48;75.40;118439.88;5076393;28;20477;-34
2023/06/17 04:01:23;;;;;;;13.30;8.20;;;;;;;-143.48;74.48;118439.88;5094161;28;20106;-36
2023/06/17 04:03:48;;;;;;;12.68;8.25;;;;;;;-143.48;73.46;118439.88;5076980;28;20023;-34
2023/06/17 04:06:14;;;;;;;10.77;8.00;;;;;;;-143.48;74.02;118439.88;5075863;28;20478;-34
2023/06/17 04:08:41;;;;;;;12.63;7.78;;;;;;;-143.48;73.53;118439.88;5075974;28;20035;-34
2023/06/17 04:11:06;;;;;;;13.77;7.72;;;;;;;-143.48;74.47;118439.88;5094219;28;20024;-34
2023/06/17 04:13:32;;;;;;;13.10;8.02;;;;;;;-143.48;74.37;118439.88;5093942;28;20055;-35
2023/06/17 04:15:57;;;;;;;11.25;8.43;;;;;;;-143.48;74.44;118439.88;5093767;28;20107;-34
2023/06/17 04:18:24;;;;;;;15.32;8.57;;;;;;;-143.48;75.22;118439.88;5094152;28;20020;-34
2023/06/17 04:20:49;;;;;;;16.67;8.55;;;;;;;-143.48;75.57;118439.88;5094008;28;20028;-33
2023/06/17 04:23:15;;;;;;;16.33;8.40;;;;;;;-143.48;75.12;118439.88;5094057;28;20020;-33
2023/06/17 04:25:40;;;;;;;12.45;8.10;;;;;;;-143.48;76.05;118439.88;5094327;28;20111;-34
2023/06/17 04:28:07;;;;;;;15.45;8.60;;;;;;;-143.48;75.71;118439.88;5093984;28;20027;-33
2023/06/17 04:30:33;;;;;;;10.48;8.02;;;;;;;-143.48;75.56;118439.88;5093947;28;20051;-34
2023/06/17 04:32:59;;;;;;;12.68;8.55;;;;;;;-143.48;75.49;118439.88;5094362;28;20046;-33
2023/06/17 04:35:28;;;;;;;11.02;8.40;;;;;;;-143.48;76.59;118439.88;5093841;28;20028;-32
2023/06/17 04:37:53;;;;;;;14.55;9.13;;;;;;;-143.48;76.88;118439.88;5093530;28;20024;-34
2023/06/17 04:40:20;;;;;;;12.88;8.80;;;;;;;-143.48;76.04;118439.88;5093488;28;20035;-34
2023/06/17 04:42:47;;;;;;;14.27;9.05;;;;;;;-143.48;76.17;118439.88;5093864;28;20494;-34
2023/06/17 04:45:12;;;;;;;13.00;8.60;;;;;;;-143.48;76.92;118439.88;5075948;28;20532;-34
2023/06/17 04:47:38;;;;;;;11.98;9.13;;;;;;;-143.48;77.83;118439.88;5093518;28;20028;-34
2023/06/17 04:50:04;;;;;;;12.43;9.07;;;;;;;-143.48;76.87;118439.88;5093320;28;20027;-43
2023/06/17 04:52:31;;;;;;;13.90;9.80;;;;;;;-143.48;77.17;118439.88;5093364;28;20032;-34
2023/06/17 04:54:56;;;;;;;13.80;9.60;;;;;;;-143.48;76.83;118439.88;5093324;28;20026;-34
2023/06/17 04:57:22;;;;;;;19.20;10.32;;;;;;;-143.48;76.11;118439.88;5093353;28;20049;-35
2023/06/17 04:59:48;;;;;;;15.18;10.30;;;;;;;-143.48;75.66;118439.88;5093352;28;20032;-34
2023/06/17 05:02:13;;;;;;;13.50;9.80;;;;;;;-143.48;77.31;118439.88;5093903;28;20477;-34
2023/06/17 05:04:39;;;;;;;15.60;10.27;;;;;;;-143.48;77.35;118439.88;5093757;28;20051;-34
2023/06/17 05:07:04;;;;;;;15.93;10.02;;;;;;;-143.48;75.94;118439.88;5075713;28;20082;-34
2023/06/17 05:09:30;;;;;;;18.23;10.07;;;;;;;-143.48;73.98;118439.88;5075151;28;20072;-40
2023/06/17 05:11:55;;;;;;;13.60;9.43;;;;;;;-143.48;73.92;118439.88;5093230;28;20020;-34
2023/06/17 05:14:20;;;;;;;12.95;9.90;;;;;;;-143.48;71.16;118439.88;5093369;28;20098;-34
2023/06/17 05:16:45;;;;;;;16.38;10.52;;;;;;;-143.48;71.00;118439.88;5093139;28;20028;-35
2023/06/17 05:19:11;;;;;;;17.10;9.95;;;;;;;-143.48;71.46;118439.88;5093337;28;20032;-34
2023/06/17 05:21:36;;;;;;;15.38;10.40;;;;;;;-143.48;72.54;118439.88;5093559;28;20028;-34
2023/06/17 05:24:01;;;;;;;18.77;10.85;;;;;;;-143.48;73.99;118439.88;5093391;28;20390;-34
2023/06/17 05:26:27;;;;;;;19.83;12.40;;;;;;;-143.48;70.86;118439.88;5093024;28;20379;-34
2023/06/17 05:28:53;;;;;;;17.30;12.07;;;;;;;-143.48;68.96;118439.88;5093121;28;20020;-34
2023/06/17 05:31:19;;;;;;;19.90;10.77;;;;;;;-143.48;58.18;118439.88;5092979;28;20149;-34
2023/06/17 05:33:44;;;;;;;14.93;9.35;;;;;;;-143.48;50.66;118439.88;5096988;28;20020;-35
2023/06/17 05:36:09;;;;;;;14.45;9.48;;;;;;;-143.48;46.81;118439.88;5097040;28;20031;-35
2023/06/17 05:38:35;;;;;;;15.38;8.95;;;;;;;-143.48;44.99;118439.88;5096993;28;20053;-34
2023/06/17 05:41:00;;;;;;;13.55;8.38;;;;;;;-143.48;42.45;118439.88;5097289;28;20019;-35
2023/06/17 05:43:26;;;;;;;10.48;7.57;;;;;;;-143.48;40.97;118439.88;5096630;28;20032;-34
2023/06/17 05:45:52;;;;;;;12.73;7.15;;;;;;;-143.48;39.98;118439.88;5096933;28;20016;-35
2023/06/17 05:48:17;;;;;;;12.55;7.05;;;;;;;-143.48;39.62;118439.88;5096891;28;20508;-35
2023/06/17 05:50:42;;;;;;;11.18;6.90;;;;;;;-143.48;39.28;118439.88;5096552;28;20491;-35
2023/06/17 05:53:08;;;;;;;9.85;6.72;;;;;;;-143.48;39.94;118439.88;5096919;28;20046;-35
2023/06/17 05:55:34;;;;;;;10.70;6.95;;;;;;;-143.48;39.61;118439.88;5078356;28;20508;-35
2023/06/17 05:57:59;;;;;;;12.80;6.03;;;;;;;-143.48;38.01;118439.88;5096389;28;20481;-35
2023/06/17 06:00:24;;;;;;;9.95;6.00;;;;;;;-143.48;37.88;118439.88;5078192;28;20027;-34
2023/06/17 06:02:50;;;;;;;11.27;6.38;;;;;;;-143.48;40.59;118439.88;5096891;28;20463;-35
2023/06/17 06:05:15;;;;;;;8.77;5.90;;;;;;;-143.48;37.92;118439.88;5096627;28;20342;-35
2023/06/17 06:07:43;;;;;;;9.02;5.78;;;;;;;-143.48;38.05;118439.88;5096559;28;20411;-34
2023/06/17 06:10:09;;;;;;;13.52;6.00;;;;;;;-143.48;38.01;118439.88;5095840;28;20024;-34
2023/06/17 06:12:36;;;;;;;11.85;5.82;;;;;;;-143.48;37.75;118439.88;5096243;28;20069;-34
2023/06/17 06:15:01;;;;;;;8.73;6.40;;;;;;;-143.48;36.87;118439.88;5076450;28;20410;-34
2023/06/17 06:17:28;;;;;;;9.98;6.30;;;;;;;-143.48;37.81;118439.88;5078008;28;20031;-37
2023/06/17 06:19:54;;;;;;;11.27;6.10;;;;;;;-143.48;38.20;118439.88;5096216;28;20496;-35
2023/06/17 06:22:20;;;;;;;11.57;5.45;;;;;;;-143.48;38.25;118439.88;5078827;28;20335;-34
2023/06/17 06:24:45;;;;;;;13.32;5.78;;;;;;;-143.48;37.15;118439.88;5096164;28;20035;-34
2023/06/17 06:27:11;;;;;;;14.95;6.35;;;;;;;-143.48;36.95;118439.88;5096116;28;20062;-34
2023/06/17 06:29:36;;;;;;;11.55;5.85;;;;;;;-143.48;36.67;118439.88;5096352;28;20044;-34
2023/06/17 06:32:02;;;;;;;7.40;5.30;;;;;;;-143.48;36.88;118439.88;5095797;28;20375;-34
2023/06/17 06:34:28;;;;;;;10.50;5.70;;;;;;;-143.48;36.07;118439.88;5095565;28;20031;-34
2023/06/17 06:36:56;;;;;;;9.00;5.32;;;;;;;-143.48;36.20;118439.88;5095559;28;20020;-34
2023/06/17 06:39:21;;;;;;;11.05;5.72;;;;;;;-143.48;38.44;118439.88;5095834;28;20351;-34
2023/06/17 06:41:47;;;;;;;10.40;5.70;;;;;;;-143.48;39.80;118439.88;5095779;28;20035;-34
2023/06/17 06:44:12;;;;;;;10.27;5.80;;;;;;;-143.48;39.53;118439.88;5094488;28;20027;-34
2023/06/17 06:46:37;;;;;;;9.73;5.53;;;;;;;-143.48;39.81;118439.88;5095610;28;20020;-35
2023/06/17 06:49:03;;;;;;;10.48;5.50;;;;;;;-143.48;38.81;118439.88;5077207;28;20028;-35
2023/06/17 06:51:28;;;;;;;8.00;5.72;;;;;;;-143.48;39.86;118439.88;5095033;28;20505;-35
2023/06/17 06:53:53;;;;;;;11.82;5.28;;;;;;;-143.48;38.87;118439.88;5095474;28;20028;-42
2023/06/17 06:56:19;;;;;;;7.60;4.57;;;;;;;-143.48;36.11;118439.88;5095531;28;20031;-35
2023/06/17 06:58:44;;;;;;;8.07;4.47;;;;;;;-143.48;36.81;118439.88;5095646;28;20093;-35
2023/06/17 07:01:09;;;;;;;11.43;5.00;;;;;;;-143.48;37.13;118439.88;5095303;28;20035;-35
2023/06/17 07:03:35;;;;;;;9.23;4.75;;;;;;;-143.48;36.90;118439.88;5094954;28;20524;-35
2023/06/17 07:06:00;;;;;;;10.20;5.55;;;;;;;-143.48;37.88;118439.88;5094867;28;20405;-34
2023/06/17 07:08:25;;;;;;;9.70;4.80;;;;;;;-143.48;36.64;118439.88;5094893;28;20028;-35
2023/06/17 07:10:51;;;;;;;7.13;4.50;;;;;;;-143.48;36.64;118439.88;5095160;28;20024;-34
2023/06/17 07:13:17;;;;;;;12.10;5.05;;;;;;;-143.48;36.50;118439.88;5095145;28;20023;-34
2023/06/17 07:15:44;;;;;;;12.70;4.95;;;;;;;-143.48;36.21;118439.88;5094998;28;20425;-29
2023/06/17 07:18:10;;;;;;;7.72;4.45;;;;;;;-143.48;35.33;118439.88;5095079;28;20020;-30
2023/06/17 07:20:35;;;;;;;8.52;4.75;;;;;;;-143.48;35.03;118439.88;5095083;28;20077;-30
2023/06/17 07:23:01;;;;;;;6.45;4.57;;;;;;;-143.48;35.18;118439.88;5094692;28;20020;-29
2023/06/17 07:25:26;;;;;;;7.70;4.40;;;;;;;-143.48;34.29;118439.88;5094933;28;20031;-30
2023/06/17 07:27:52;;;;;;;6.18;4.00;;;;;;;-143.48;34.47;118439.88;5076807;28;20030;-30
2023/06/17 07:30:17;;;;;;;6.15;4.25;;;;;;;-143.48;34.06;118439.88;5094426;28;20382;-30
2023/06/17 07:32:42;;;;;;;6.95;3.40;;;;;;;-143.48;32.09;118439.88;5094684;28;20020;-30
2023/06/17 07:35:08;;;;;;;6.90;4.15;;;;;;;-143.48;34.06;118439.88;5094448;28;20016;-30
2023/06/17 07:37:33;;;;;;;10.45;3.85;;;;;;;-143.48;31.85;118439.88;5094207;28;20509;-30
2023/06/17 07:39:59;;;;;;;6.20;3.53;;;;;;;-143.48;31.84;118439.88;5094807;28;20026;-30
2023/06/17 07:42:24;;;;;;;5.45;3.60;;;;;;;-143.48;32.02;118439.88;5094136;28;20513;-30
2023/06/17 07:44:49;;;;;;;11.27;3.78;;;;;;;-143.48;32.49;118439.88;5094366;28;20030;-30
2023/06/17 07:47:15;;;;;;;9.10;4.10;;;;;;;-143.48;33.01;118439.88;5094144;28;20028;-30
2023/06/17 07:49:40;;;;;;;6.60;4.03;;;;;;;-143.48;32.59;118439.88;5094055;28;20016;-30
2023/06/17 07:52:06;;;;;;;5.75;3.63;;;;;;;-143.48;31.59;118439.88;5094134;28;20048;-31
2023/06/17 07:54:35;;;;;;;6.47;3.13;;;;;;;-143.48;29.84;118439.88;5092861;28;20112;-30
2023/06/17 07:57:01;;;;;;;6.85;3.00;;;;;;;-143.48;30.81;118439.88;5093576;28;20035;-30
2023/06/17 07:59:26;;;;;;;6.38;3.00;;;;;;;-143.48;30.94;118439.88;5094143;28;20413;-30
2023/06/17 08:01:52;;;;;;;8.70;3.30;;;;;;;-143.48;30.33;118439.88;5094276;28;20032;-30
2023/06/17 08:04:21;;;;;;;5.45;3.40;;;;;;;-143.48;30.88;118439.88;5075745;28;20039;-31
2023/06/17 08:06:47;;;;;;;5.00;3.20;;;;;;;-143.48;30.48;118439.88;5076156;28;20430;-30
2023/06/17 08:09:13;;;;;;;7.50;3.35;;;;;;;-143.48;30.31;118439.88;5094367;28;20059;-30
2023/06/17 08:11:38;;;;;;;6.32;3.10;;;;;;;-143.48;31.44;118439.88;5094164;28;20455;-30
2023/06/17 08:14:03;;;;;;;8.18;3.42;;;;;;;-143.48;31.21;118439.88;5093848;28;20066;-29
2023/06/17 08:16:29;;;;;;;9.32;3.50;;;;;;;-143.48;30.86;118439.88;5093780;28;20127;-30
2023/06/17 08:18:54;;;;;;;9.30;3.38;;;;;;;-143.48;29.60;118439.88;5093996;28;20494;-30
2023/06/17 08:21:19;;;;;;;11.45;3.50;;;;;;;-143.48;30.02;118439.88;5092701;28;20024;-30
2023/06/17 08:23:45;;;;;;;9.23;4.18;;;;;;;-143.48;30.68;118439.88;5093513;28;20023;-30
2023/06/17 08:26:11;;;;;;;8.43;3.45;;;;;;;-143.48;31.36;118439.88;5093622;28;20024;-30
2023/06/17 08:28:36;;;;;;;6.75;3.85;;;;;;;-143.48;30.83;118439.88;5093521;28;20020;-29
2023/06/17 08:31:02;;;;;;;6.53;3.38;;;;;;;-143.48;30.64;118439.88;5093339;28;20089;-30
2023/06/17 08:33:29;;;;;;;7.78;3.30;;;;;;;-143.48;30.80;118439.88;5093460;28;20024;-30
2023/06/17 08:35:54;;;;;;;6.88;3.50;;;;;;;-143.48;30.74;118439.88;5093369;28;20035;-30
2023/06/17 08:38:20;;;;;;;7.47;3.20;;;;;;;-143.48;31.44;118439.88;5075337;28;20017;-30
2023/06/17 08:40:45;;;;;;;6.57;3.38;;;;;;;-143.48;30.88;118439.88;5075514;28;20052;-30
2023/06/17 08:43:15;;;;;;;7.38;3.92;;;;;;;-143.48;29.92;118439.88;5075237;28;20065;-29
2023/06/17 08:45:41;;;;;;;5.53;3.30;;;;;;;-143.48;30.31;118439.88;5094040;28;20059;-36
2023/06/17 08:48:07;;;;;;;6.72;3.30;;;;;;;-143.48;29.87;118439.88;5092244;28;20032;-29
2023/06/17 08:50:33;;;;;;;6.50;3.42;;;;;;;-143.48;30.31;118439.88;5093076;28;20044;-30
2023/06/17 08:52:59;;;;;;;8.35;3.53;;;;;;;-143.48;30.49;118439.88;5092429;28;20016;-30
2023/06/17 08:55:24;;;;;;;6.93;3.50;;;;;;;-143.48;29.73;118439.88;5093715;28;20016;-31
2023/06/17 08:57:53;;;;;;;6.90;3.30;;;;;;;-143.48;28.95;118439.88;5092082;28;20373;-30
2023/06/17 09:00:18;;;;;;;10.18;3.47;;;;;;;-143.48;29.75;118439.88;5090967;28;20097;-30
2023/06/17 09:02:47;;;;;;;8.43;3.50;;;;;;;-143.48;29.06;118439.88;5091114;28;20012;-30
2023/06/17 09:05:13;;;;;;;4.35;3.00;;;;;;;-143.48;29.42;118439.88;5091430;28;20035;-30
2023/06/17 09:07:41;;;;;;;6.63;3.03;;;;;;;-143.48;29.55;118439.88;5093736;28;20020;-30
2023/06/17 09:10:08;;;;;;;7.20;3.25;;;;;;;-143.48;28.04;118439.88;5079155;28;20039;-30
2023/06/17 09:12:38;;;;;;;7.10;3.40;;;;;;;-143.48;27.90;118439.88;5062508;28;20062;-30
2023/06/17 09:15:14;;;;;;;5.20;3.25;;;;;;;-143.48;27.83;118439.88;5097284;28;20047;-30
2023/06/17 09:17:42;;;;;;;5.25;3.22;;;;;;;-143.48;28.56;118439.88;5094609;28;20474;-30
2023/06/17 09:20:13;;;;;;;5.47;3.60;;;;;;;-143.48;28.92;118439.88;5096282;28;20031;-30
2023/06/17 09:22:46;;;;;;;6.68;3.50;;;;;;;-143.48;28.83;118439.88;5096940;28;20474;-30
2023/06/17 09:25:14;;;;;;;6.88;3.35;;;;;;;-143.48;29.47;118439.88;5078853;28;20109;-30
2023/06/17 09:27:53;;;;;;;9.27;3.40;;;;;;;-143.48;28.60;118439.88;5078714;28;20034;-31
2023/06/17 09:30:20;;;;;;;7.40;3.60;;;;;;;-143.48;28.08;118439.88;5096916;28;20129;-30
2023/06/17 09:32:49;;;;;;;7.00;3.00;;;;;;;-143.48;28.28;118439.88;5096396;28;20098;-30
2023/06/17 09:35:15;;;;;;;9.07;3.60;;;;;;;-143.48;28.60;118439.88;5096431;28;20024;-30
2023/06/17 09:37:42;;;;;;;8.15;3.13;;;;;;;-143.48;29.11;118439.88;5096667;28;20020;-30
2023/06/17 09:40:09;;;;;;;5.65;3.63;;;;;;;-143.48;29.12;118439.88;5096434;28;20024;-29
2023/06/17 09:42:34;;;;;;;9.40;3.75;;;;;;;-143.48;28.55;118439.88;5096564;28;20039;-29
2023/06/17 09:45:03;;;;;;;14.55;3.60;;;;;;;-143.48;28.87;118439.88;5096595;28;20414;-29
2023/06/17 09:47:38;;;;;;;6.22;3.50;;;;;;;-143.48;27.90;118439.88;5096505;28;20024;-29
2023/06/17 09:50:08;;;;;;;7.97;3.60;;;;;;;-143.48;27.94;118439.88;5094752;28;20035;-29
2023/06/17 09:52:35;;;;;;;7.95;3.40;;;;;;;-143.48;28.30;118439.88;5074539;28;20112;-29
2023/06/17 09:55:02;;;;;;;5.72;2.90;;;;;;;-143.48;27.68;118439.88;5093878;28;20047;-29
2023/06/17 09:57:32;;;;;;;7.25;3.55;;;;;;;-143.48;27.67;118439.88;5093283;28;20040;-29
2023/06/17 10:00:06;;;;;;;8.57;3.78;;;;;;;-143.48;27.76;118439.88;5094051;28;20024;-29
2023/06/17 10:02:32;;;;;;;6.20;3.70;;;;;;;-143.48;29.05;118439.88;5093809;28;20030;-30
2023/06/17 10:04:57;;;;;;;12.32;3.83;;;;;;;-143.48;28.59;118439.88;5094145;28;20020;-29
2023/06/17 10:07:26;;;;;;;14.45;3.63;;;;;;;-143.48;28.33;118439.88;5095767;28;20474;-29
2023/06/17 10:09:52;;;;;;;19.30;3.97;;;;;;;-143.48;27.66;118439.88;5096254;28;20547;-29
2023/06/17 10:12:21;;;;;;;5.07;3.38;;;;;;;-143.48;28.75;118439.88;5096289;28;20032;-29
2023/06/17 10:14:48;;;;;;;4.80;3.00;;;;;;;-143.48;26.40;118439.88;5095977;28;20505;-29
2023/06/17 10:17:16;;;;;;;4.88;3.60;;;;;;;-143.48;29.00;118439.88;5096196;28;20051;-29
2023/06/17 10:19:43;;;;;;;11.10;3.28;;;;;;;-143.48;27.92;118439.88;5095902;28;20110;-29
2023/06/17 10:22:12;;;;;;;6.25;3.15;;;;;;;-143.48;26.54;118439.88;5096471;28;20024;-30
2023/06/17 10:24:38;;;;;;;5.18;3.40;;;;;;;-143.48;27.95;118439.88;5096625;28;20024;-31
2023/06/17 10:27:05;;;;;;;5.60;3.20;;;;;;;-143.48;27.52;118439.88;5095685;28;20023;-29
2023/06/17 10:29:34;;;;;;;5.90;3.42;;;;;;;-143.48;27.41;118439.88;5095750;28;20028;-29
2023/06/17 10:32:29;;;;;;;7.28;3.50;;;;;;;-143.48;27.01;118439.88;5096495;28;20028;-29
2023/06/17 10:35:08;;;;;;;6.70;3.03;;;;;;;-143.48;26.11;118439.88;5074611;28;20032;-29
2023/06/17 10:37:44;;;;;;;4.60;3.10;;;;;;;-143.48;27.02;118439.88;5095921;28;20024;-29
2023/06/17 10:40:22;;;;;;;5.57;3.30;;;;;;;-143.48;27.34;118439.88;5095552;28;20024;-29
2023/06/17 10:43:15;;;;;;;5.55;3.13;;;;;;;-143.48;26.39;118439.88;5095826;28;20040;-29
2023/06/17 10:45:50;;;;;;;11.30;3.33;;;;;;;-143.48;26.81;118439.88;5095444;28;20024;-29
2023/06/17 10:48:27;;;;;;;7.72;4.03;;;;;;;-143.48;27.62;118439.88;5095378;28;20037;-29
2023/06/17 10:50:56;;;;;;;9.95;3.70;;;;;;;-143.48;27.06;118439.88;5095694;28;20085;-29
2023/06/17 10:53:32;;;;;;;5.32;3.50;;;;;;;-143.48;26.54;118439.88;5095126;28;20073;-29
2023/06/17 10:55:59;;;;;;;9.68;3.58;;;;;;;-143.48;27.16;118439.88;5095389;28;20031;-29
2023/06/17 10:58:36;;;;;;;4.95;3.17;;;;;;;-143.48;26.14;118439.88;5095140;28;20081;-29
2023/06/17 11:01:02;;;;;;;6.30;3.15;;;;;;;-143.48;25.13;118439.88;5095478;28;20437;-29
2023/06/17 11:03:28;;;;;;;7.07;3.20;;;;;;;-143.48;23.97;118439.88;5095403;28;20028;-29